createdAt,value
2023-05-05T00:00:40.298Z,55.08
2023-05-05T00:06:02.051Z,55.60
2023-05-05T00:11:23.687Z,56.32
2023-05-05T00:16:45.345Z,56.76
2023-05-05T00:22:07.422Z,57.01
2023-05-05T00:27:29.068Z,57.48
2023-05-05T00:32:51.248Z,57.86
2023-05-05T00:38:15.091Z,58.11
2023-05-05T00:43:36.899Z,58.24
2023-05-05T00:48:59.919Z,58.38
2023-05-05T00:54:25.178Z,58.67
2023-05-05T00:59:50.130Z,59.23
2023-05-05T01:05:13.846Z,59.73
2023-05-05T01:10:43.442Z,60.09
2023-05-05T01:16:25.850Z,59.95
2023-05-05T01:21:50.532Z,60.23
2023-05-05T01:27:28.737Z,60.61
2023-05-05T01:32:59.445Z,60.65
2023-05-05T01:38:41.883Z,60.90
2023-05-05T01:44:05.794Z,61.15
2023-05-05T01:49:29.364Z,61.12
2023-05-05T01:54:56.478Z,61.11
2023-05-05T02:00:19.528Z,60.95
2023-05-05T02:05:42.020Z,61.02
2023-05-05T02:11:05.431Z,61.56
2023-05-05T02:16:28.145Z,61.97
2023-05-05T02:21:50.362Z,62.32
2023-05-05T02:27:12.239Z,62.20
2023-05-05T02:32:37.931Z,61.45
2023-05-05T02:38:04.893Z,61.20
2023-05-05T02:43:31.765Z,61.42
2023-05-05T02:48:54.111Z,61.80
2023-05-05T02:54:15.984Z,61.80
2023-05-05T02:59:51.339Z,61.83
2023-05-05T03:05:24.228Z,62.35
2023-05-05T03:11:04.605Z,62.31
2023-05-05T03:16:29.735Z,61.99
2023-05-05T03:21:52.616Z,62.14
2023-05-05T03:27:14.566Z,62.46
2023-05-05T03:32:37.708Z,62.55
2023-05-05T03:38:00.252Z,62.64
2023-05-05T03:43:23.311Z,62.61
2023-05-05T03:48:45.104Z,62.66
2023-05-05T03:54:07.191Z,62.73
2023-05-05T03:59:29.824Z,62.47
2023-05-05T04:04:51.677Z,62.35
2023-05-05T04:10:13.602Z,61.80
2023-05-05T04:15:35.501Z,61.67
2023-05-05T04:20:57.332Z,61.88
2023-05-05T04:26:19.697Z,61.87
2023-05-05T04:31:43.425Z,61.97
2023-05-05T04:37:05.827Z,61.98
2023-05-05T04:42:27.555Z,61.24
2023-05-05T04:47:52.953Z,60.25
2023-05-05T04:53:14.948Z,60.97
2023-05-05T04:58:39.004Z,61.38
2023-05-05T05:04:01.532Z,61.29
2023-05-05T05:15:01.652Z,61.43
2023-05-05T05:20:25.003Z,60.85
2023-05-05T05:25:47.235Z,60.26
2023-05-05T05:31:11.837Z,58.32
2023-05-05T05:36:34.298Z,56.99
2023-05-05T05:41:56.111Z,55.48
2023-05-05T05:47:18.439Z,53.67
2023-05-05T05:52:40.665Z,52.39
2023-05-05T05:58:02.791Z,51.58
2023-05-05T06:03:25.526Z,51.02
2023-05-05T06:08:47.610Z,50.64
2023-05-05T06:14:09.471Z,50.27
2023-05-05T06:19:35.306Z,49.43
2023-05-05T06:24:57.109Z,48.44
2023-05-05T06:30:19.698Z,48.27
2023-05-05T06:35:42.466Z,47.87
2023-05-05T06:41:04.658Z,46.99
2023-05-05T06:46:27.090Z,46.78
2023-05-05T06:51:50.061Z,46.69
2023-05-05T06:57:13.139Z,45.90
2023-05-05T07:02:35.038Z,44.99
2023-05-05T07:07:57.500Z,45.15
2023-05-05T07:13:19.381Z,44.01
2023-05-05T07:18:41.304Z,42.98
2023-05-05T07:24:03.623Z,43.06
2023-05-05T07:29:25.349Z,42.30
2023-05-05T07:34:47.059Z,41.95
2023-05-05T07:40:09.504Z,41.38
2023-05-05T07:45:31.592Z,40.79
2023-05-05T07:50:53.106Z,40.56
2023-05-05T07:56:14.991Z,40.01
2023-05-05T08:01:39.096Z,38.82
2023-05-05T08:07:03.192Z,38.01
2023-05-05T08:12:24.935Z,37.33
2023-05-05T08:17:49.370Z,37.72
2023-05-05T08:23:13.562Z,36.73
2023-05-05T08:28:36.998Z,36.44
2023-05-05T08:34:00.898Z,35.09
2023-05-05T08:39:23.068Z,35.70
2023-05-05T08:44:44.796Z,35.62
2023-05-05T08:50:07.985Z,35.55
2023-05-05T08:55:34.288Z,34.98
2023-05-05T09:00:56.967Z,33.82
2023-05-05T09:06:21.318Z,34.48
2023-05-05T09:11:43.984Z,34.59
2023-05-05T09:17:06.248Z,33.67
2023-05-05T09:22:33.246Z,32.98
2023-05-05T09:27:55.084Z,32.72
2023-05-05T09:33:31.651Z,32.69
2023-05-05T09:39:04.526Z,32.90
2023-05-05T09:44:40.189Z,32.39
2023-05-05T09:50:02.439Z,31.73
2023-05-05T09:55:24.999Z,31.76
2023-05-05T10:00:46.889Z,30.85
2023-05-05T10:06:08.822Z,30.99
2023-05-05T10:11:30.715Z,30.77
2023-05-05T10:16:54.372Z,30.02
2023-05-05T10:22:17.417Z,30.15
2023-05-05T10:27:46.881Z,29.94
2023-05-05T10:38:45.588Z,30.07
2023-05-05T10:44:10.736Z,30.45
2023-05-05T10:50:12.000Z,29.90
2023-05-05T10:56:10.948Z,28.28
2023-05-05T11:01:34.647Z,29.00
2023-05-05T11:07:12.472Z,28.92
2023-05-05T11:12:59.438Z,28.03
2023-05-05T11:18:36.034Z,27.38
2023-05-05T11:24:30.094Z,27.89
2023-05-05T11:30:03.789Z,27.62
2023-05-05T11:36:09.080Z,26.80
2023-05-05T11:41:30.898Z,27.52
2023-05-05T11:46:52.642Z,27.47
2023-05-05T11:52:15.175Z,27.76
2023-05-05T11:57:40.025Z,28.46
2023-05-05T12:03:01.964Z,28.05
2023-05-05T12:08:24.454Z,27.78
2023-05-05T12:13:48.186Z,26.97
2023-05-05T12:19:11.924Z,27.76
2023-05-05T12:24:33.615Z,26.89
2023-05-05T12:29:56.908Z,27.86
2023-05-05T12:35:20.057Z,28.34
2023-05-05T12:40:47.108Z,27.75
2023-05-05T12:46:12.039Z,27.62
2023-05-05T12:51:37.678Z,28.14
2023-05-05T12:57:11.124Z,28.18
2023-05-05T13:02:35.977Z,27.13
2023-05-05T13:07:58.498Z,27.53
2023-05-05T13:13:19.885Z,26.82
2023-05-05T13:18:45.377Z,27.40
2023-05-05T13:24:20.791Z,27.80
2023-05-05T13:29:45.124Z,27.71
2023-05-05T13:35:07.518Z,27.38
2023-05-05T13:40:29.642Z,27.50
2023-05-05T13:45:51.471Z,27.55
2023-05-05T13:51:13.311Z,28.00
2023-05-05T13:56:35.297Z,28.60
2023-05-05T14:01:57.259Z,29.07
2023-05-05T14:07:19.092Z,28.87
2023-05-05T14:12:41.241Z,28.52
2023-05-05T14:18:03.297Z,28.54
2023-05-05T14:23:25.180Z,28.05
2023-05-05T14:28:53.353Z,28.42
2023-05-05T14:34:15.266Z,28.25
2023-05-05T14:39:36.883Z,28.42
2023-05-05T14:44:58.508Z,28.31
2023-05-05T14:50:20.742Z,28.65
2023-05-05T14:55:42.554Z,29.08
2023-05-05T15:01:05.317Z,28.83
2023-05-05T15:06:28.238Z,29.14
2023-05-05T15:11:50.042Z,28.82
2023-05-05T15:17:11.798Z,29.20
2023-05-05T15:22:33.338Z,29.67
2023-05-05T15:27:55.255Z,30.22
2023-05-05T15:33:17.381Z,29.36
2023-05-05T15:38:44.654Z,29.71
2023-05-05T15:44:06.650Z,29.44
2023-05-05T15:49:28.154Z,29.59
2023-05-05T15:54:50.010Z,30.02
2023-05-05T16:00:12.645Z,30.32
2023-05-05T16:05:35.683Z,30.76
2023-05-05T16:10:57.504Z,30.96
2023-05-05T16:16:19.579Z,31.02
2023-05-05T16:21:41.361Z,31.46
2023-05-05T16:27:03.897Z,31.87
2023-05-05T16:32:25.640Z,32.02
2023-05-05T16:37:48.060Z,32.33
2023-05-05T16:43:09.789Z,32.78
2023-05-05T16:48:31.410Z,32.65
2023-05-05T16:53:55.853Z,32.84
2023-05-05T16:59:19.341Z,33.12
2023-05-05T17:04:41.409Z,33.06
2023-05-05T17:10:03.043Z,33.53
2023-05-05T17:15:24.661Z,33.22
2023-05-05T17:20:46.535Z,33.48
2023-05-05T17:26:08.470Z,33.94
2023-05-05T17:31:30.684Z,34.00
2023-05-05T17:36:52.386Z,34.61
2023-05-05T17:42:14.434Z,35.09
2023-05-05T17:47:36.756Z,35.71
2023-05-05T17:52:58.645Z,35.98
2023-05-05T17:58:20.711Z,36.39
2023-05-05T18:03:42.896Z,36.80
2023-05-05T18:09:05.081Z,36.99
2023-05-05T18:14:26.603Z,37.46
2023-05-05T18:19:49.366Z,37.74
2023-05-05T18:25:14.232Z,38.10
2023-05-05T18:36:12.065Z,38.67
2023-05-05T18:41:33.602Z,38.90
2023-05-05T18:46:57.290Z,39.01
2023-05-05T18:52:19.270Z,39.30
2023-05-05T18:57:40.989Z,39.45
2023-05-05T19:03:02.806Z,39.55
2023-05-05T19:08:24.948Z,39.53
2023-05-05T19:13:46.980Z,39.62
2023-05-05T19:19:10.960Z,39.87
2023-05-05T19:24:35.849Z,39.99
2023-05-05T19:29:57.551Z,40.17
2023-05-05T19:35:19.597Z,40.24
2023-05-05T19:40:41.905Z,40.15
2023-05-05T19:46:03.628Z,40.36
2023-05-05T19:51:26.242Z,40.38
2023-05-05T19:56:48.037Z,40.40
2023-05-05T20:02:11.701Z,40.41
2023-05-05T20:07:33.691Z,40.48
2023-05-05T20:12:55.199Z,40.52
2023-05-05T20:18:16.949Z,40.74
2023-05-05T20:23:38.978Z,41.11
2023-05-05T20:29:00.811Z,41.35
2023-05-05T20:34:25.281Z,41.37
2023-05-05T20:39:47.496Z,41.32
2023-05-05T20:45:10.788Z,41.54
2023-05-05T20:50:32.977Z,41.57
2023-05-05T20:55:54.576Z,41.83
2023-05-05T21:01:17.139Z,41.77
2023-05-05T21:06:41.436Z,41.91
2023-05-05T21:12:03.968Z,42.28
2023-05-05T21:17:26.036Z,42.73
2023-05-05T21:22:47.928Z,43.20
2023-05-05T21:28:09.469Z,43.55
2023-05-05T21:33:34.142Z,43.55
2023-05-05T21:38:57.758Z,43.81
2023-05-05T21:44:20.776Z,43.95
2023-05-05T21:49:43.577Z,44.00
2023-05-05T21:55:06.152Z,44.12
2023-05-05T22:00:27.996Z,44.40
2023-05-05T22:05:51.064Z,44.60
2023-05-05T22:11:13.434Z,44.77
2023-05-05T22:16:35.217Z,44.92
2023-05-05T22:21:59.722Z,45.24
2023-05-05T22:27:21.424Z,45.57
2023-05-05T22:32:43.553Z,46.02
2023-05-05T22:38:06.154Z,46.60
2023-05-05T22:43:27.885Z,47.08
2023-05-05T22:48:49.327Z,47.31
2023-05-05T22:54:13.660Z,47.86
2023-05-05T22:59:40.917Z,48.38
2023-05-05T23:05:03.062Z,48.99
2023-05-05T23:10:25.020Z,49.55
2023-05-05T23:15:47.114Z,49.84
2023-05-05T23:21:09.669Z,50.28
2023-05-05T23:26:31.468Z,50.72
2023-05-05T23:31:53.516Z,51.08
2023-05-05T23:37:16.092Z,51.17
2023-05-05T23:42:38.857Z,51.66
2023-05-05T23:48:01.186Z,51.83
2023-05-05T23:53:22.999Z,51.80
2023-05-05T23:58:45.041Z,52.22
